sensor_id;sensor_type;location;lat;lon;timestamp;temperature;humidity
9486;DHT22;4781;48.776;9.200;2023-06-22T00:01:35;21.60;99.90
9486;DHT22;4781;48.776;9.200;2023-06-22T00:04:04;21.50;99.90
9486;DHT22;4781;48.776;9.200;2023-06-22T00:06:32;21.50;99.90
9486;DHT22;4781;48.776;9.200;2023-06-22T00:09:01;21.40;99.90
9486;DHT22;4781;48.776;9.200;2023-06-22T00:11:29;21.40;99.90
9486;DHT22;4781;48.776;9.200;2023-06-22T00:14:19;21.40;99.90
9486;DHT22;4781;48.776;9.200;2023-06-22T00:16:47;21.40;99.90
9486;DHT22;4781;48.776;9.200;2023-06-22T00:19:17;21.40;99.90
9486;DHT22;4781;48.776;9.200;2023-06-22T00:21:48;21.40;99.90
9486;DHT22;4781;48.776;9.200;2023-06-22T00:24:20;21.30;99.90
9486;DHT22;4781;48.776;9.200;2023-06-22T00:26:48;21.30;99.90
9486;DHT22;4781;48.776;9.200;2023-06-22T00:29:17;21.30;99.90
9486;DHT22;4781;48.776;9.200;2023-06-22T00:31:45;21.20;99.90
9486;DHT22;4781;48.776;9.200;2023-06-22T00:34:14;21.10;99.90
9486;DHT22;4781;48.776;9.200;2023-06-22T00:36:42;21.10;99.90
9486;DHT22;4781;48.776;9.200;2023-06-22T00:39:10;21.10;99.90
9486;DHT22;4781;48.776;9.200;2023-06-22T00:41:40;21.00;99.90
9486;DHT22;4781;48.776;9.200;2023-06-22T00:44:09;21.00;99.90
9486;DHT22;4781;48.776;9.200;2023-06-22T00:46:37;21.00;99.90
9486;DHT22;4781;48.776;9.200;2023-06-22T00:49:05;21.00;99.90
9486;DHT22;4781;48.776;9.200;2023-06-22T00:51:34;20.90;99.90
9486;DHT22;4781;48.776;9.200;2023-06-22T00:54:04;20.90;99.90
9486;DHT22;4781;48.776;9.200;2023-06-22T00:56:33;20.80;99.90
9486;DHT22;4781;48.776;9.200;2023-06-22T00:59:03;20.70;99.90
9486;DHT22;4781;48.776;9.200;2023-06-22T01:01:32;20.70;99.90
9486;DHT22;4781;48.776;9.200;2023-06-22T01:04:00;20.70;99.90
9486;DHT22;4781;48.776;9.200;2023-06-22T01:06:35;20.70;99.90
9486;DHT22;4781;48.776;9.200;2023-06-22T01:09:22;20.80;99.90
9486;DHT22;4781;48.776;9.200;2023-06-22T01:11:57;20.70;99.90
9486;DHT22;4781;48.776;9.200;2023-06-22T01:17:12;20.60;99.90
9486;DHT22;4781;48.776;9.200;2023-06-22T01:19:51;20.70;99.90
9486;DHT22;4781;48.776;9.200;2023-06-22T01:22:28;20.70;99.90
9486;DHT22;4781;48.776;9.200;2023-06-22T01:30:12;20.60;99.90
9486;DHT22;4781;48.776;9.200;2023-06-22T01:32:42;20.60;99.90
9486;DHT22;4781;48.776;9.200;2023-06-22T01:35:11;20.60;99.90
9486;DHT22;4781;48.776;9.200;2023-06-22T01:37:40;20.50;99.90
9486;DHT22;4781;48.776;9.200;2023-06-22T01:40:09;20.50;99.90
9486;DHT22;4781;48.776;9.200;2023-06-22T01:42:38;20.50;99.90
9486;DHT22;4781;48.776;9.200;2023-06-22T01:45:07;20.40;99.90
9486;DHT22;4781;48.776;9.200;2023-06-22T01:47:37;20.50;99.90
9486;DHT22;4781;48.776;9.200;2023-06-22T01:50:07;20.40;99.90
9486;DHT22;4781;48.776;9.200;2023-06-22T01:52:35;20.40;99.90
9486;DHT22;4781;48.776;9.200;2023-06-22T01:55:04;20.30;99.90
9486;DHT22;4781;48.776;9.200;2023-06-22T01:57:34;20.30;99.90
9486;DHT22;4781;48.776;9.200;2023-06-22T02:00:11;20.20;99.90
9486;DHT22;4781;48.776;9.200;2023-06-22T02:02:52;20.10;99.90
9486;DHT22;4781;48.776;9.200;2023-06-22T02:05:23;20.10;99.90
9486;DHT22;4781;48.776;9.200;2023-06-22T02:08:15;20.10;99.90
9486;DHT22;4781;48.776;9.200;2023-06-22T02:10:44;20.10;99.90
9486;DHT22;4781;48.776;9.200;2023-06-22T02:13:13;20.00;99.90
9486;DHT22;4781;48.776;9.200;2023-06-22T02:15:42;20.00;99.90
9486;DHT22;4781;48.776;9.200;2023-06-22T02:18:11;20.00;99.90
9486;DHT22;4781;48.776;9.200;2023-06-22T02:20:40;20.00;99.90
9486;DHT22;4781;48.776;9.200;2023-06-22T02:23:08;19.90;99.90
9486;DHT22;4781;48.776;9.200;2023-06-22T02:25:37;19.90;99.90
9486;DHT22;4781;48.776;9.200;2023-06-22T02:28:06;19.90;99.90
9486;DHT22;4781;48.776;9.200;2023-06-22T02:30:34;19.90;99.90
9486;DHT22;4781;48.776;9.200;2023-06-22T02:33:02;19.90;99.90
9486;DHT22;4781;48.776;9.200;2023-06-22T02:35:31;19.90;99.90
9486;DHT22;4781;48.776;9.200;2023-06-22T02:38:03;19.90;99.90
9486;DHT22;4781;48.776;9.200;2023-06-22T02:40:32;19.80;99.90
9486;DHT22;4781;48.776;9.200;2023-06-22T02:43:00;19.80;99.90
9486;DHT22;4781;48.776;9.200;2023-06-22T02:45:29;19.70;99.90
9486;DHT22;4781;48.776;9.200;2023-06-22T02:47:57;19.60;99.90
9486;DHT22;4781;48.776;9.200;2023-06-22T02:50:26;19.60;99.90
9486;DHT22;4781;48.776;9.200;2023-06-22T02:52:54;19.70;99.90
9486;DHT22;4781;48.776;9.200;2023-06-22T02:55:23;19.60;99.90
9486;DHT22;4781;48.776;9.200;2023-06-22T02:57:51;19.50;99.90
9486;DHT22;4781;48.776;9.200;2023-06-22T03:00:20;19.60;99.90
9486;DHT22;4781;48.776;9.200;2023-06-22T03:02:49;19.60;99.90
9486;DHT22;4781;48.776;9.200;2023-06-22T03:05:18;19.60;99.90
9486;DHT22;4781;48.776;9.200;2023-06-22T03:07:46;19.50;99.90
9486;DHT22;4781;48.776;9.200;2023-06-22T03:10:15;19.40;99.90
9486;DHT22;4781;48.776;9.200;2023-06-22T03:12:44;19.40;99.90
9486;DHT22;4781;48.776;9.200;2023-06-22T03:15:13;19.50;99.90
9486;DHT22;4781;48.776;9.200;2023-06-22T03:17:41;19.40;99.90
9486;DHT22;4781;48.776;9.200;2023-06-22T03:20:10;19.40;99.90
9486;DHT22;4781;48.776;9.200;2023-06-22T03:22:41;19.40;99.90
9486;DHT22;4781;48.776;9.200;2023-06-22T03:25:10;19.40;99.90
9486;DHT22;4781;48.776;9.200;2023-06-22T03:27:41;19.30;99.90
9486;DHT22;4781;48.776;9.200;2023-06-22T03:30:12;19.30;99.90
9486;DHT22;4781;48.776;9.200;2023-06-22T03:32:40;19.20;99.90
9486;DHT22;4781;48.776;9.200;2023-06-22T03:35:10;19.20;99.90
9486;DHT22;4781;48.776;9.200;2023-06-22T03:37:40;19.20;99.90
9486;DHT22;4781;48.776;9.200;2023-06-22T03:40:10;19.20;99.90
9486;DHT22;4781;48.776;9.200;2023-06-22T03:42:39;19.20;99.90
9486;DHT22;4781;48.776;9.200;2023-06-22T03:45:08;19.20;99.90
9486;DHT22;4781;48.776;9.200;2023-06-22T03:47:37;19.20;99.90
9486;DHT22;4781;48.776;9.200;2023-06-22T03:50:06;19.20;99.90
9486;DHT22;4781;48.776;9.200;2023-06-22T03:52:35;19.20;99.90
9486;DHT22;4781;48.776;9.200;2023-06-22T03:55:03;19.20;99.90
9486;DHT22;4781;48.776;9.200;2023-06-22T03:57:33;19.20;99.90
9486;DHT22;4781;48.776;9.200;2023-06-22T04:00:02;19.20;99.90
9486;DHT22;4781;48.776;9.200;2023-06-22T04:02:34;19.30;99.90
9486;DHT22;4781;48.776;9.200;2023-06-22T04:05:02;19.20;99.90
9486;DHT22;4781;48.776;9.200;2023-06-22T04:07:31;19.20;99.90
9486;DHT22;4781;48.776;9.200;2023-06-22T04:09:59;19.20;99.90
9486;DHT22;4781;48.776;9.200;2023-06-22T04:12:28;19.20;99.90
9486;DHT22;4781;48.776;9.200;2023-06-22T04:14:56;19.20;99.90
9486;DHT22;4781;48.776;9.200;2023-06-22T04:17:25;19.30;99.90
9486;DHT22;4781;48.776;9.200;2023-06-22T04:19:53;19.30;99.90
9486;DHT22;4781;48.776;9.200;2023-06-22T04:22:21;19.30;99.90
9486;DHT22;4781;48.776;9.200;2023-06-22T04:24:50;19.40;99.90
9486;DHT22;4781;48.776;9.200;2023-06-22T04:27:19;19.50;99.90
9486;DHT22;4781;48.776;9.200;2023-06-22T04:29:49;19.50;99.90
9486;DHT22;4781;48.776;9.200;2023-06-22T04:32:18;19.50;99.90
9486;DHT22;4781;48.776;9.200;2023-06-22T04:34:47;19.60;99.90
9486;DHT22;4781;48.776;9.200;2023-06-22T04:37:15;19.60;99.90
9486;DHT22;4781;48.776;9.200;2023-06-22T04:39:43;19.60;99.90
9486;DHT22;4781;48.776;9.200;2023-06-22T04:42:12;19.70;99.90
9486;DHT22;4781;48.776;9.200;2023-06-22T04:44:41;19.70;99.90
9486;DHT22;4781;48.776;9.200;2023-06-22T04:47:09;19.80;99.90
9486;DHT22;4781;48.776;9.200;2023-06-22T04:49:38;19.80;99.90
9486;DHT22;4781;48.776;9.200;2023-06-22T04:52:09;19.90;99.90
9486;DHT22;4781;48.776;9.200;2023-06-22T04:54:40;19.90;99.90
9486;DHT22;4781;48.776;9.200;2023-06-22T04:57:10;20.00;99.90
9486;DHT22;4781;48.776;9.200;2023-06-22T04:59:39;20.10;99.90
9486;DHT22;4781;48.776;9.200;2023-06-22T05:02:08;20.10;99.90
9486;DHT22;4781;48.776;9.200;2023-06-22T05:04:37;20.20;99.90
9486;DHT22;4781;48.776;9.200;2023-06-22T05:07:09;20.30;99.90
9486;DHT22;4781;48.776;9.200;2023-06-22T05:09:37;20.30;99.90
9486;DHT22;4781;48.776;9.200;2023-06-22T05:12:06;20.40;99.90
9486;DHT22;4781;48.776;9.200;2023-06-22T05:14:35;20.40;99.90
9486;DHT22;4781;48.776;9.200;2023-06-22T05:17:04;20.50;99.90
9486;DHT22;4781;48.776;9.200;2023-06-22T05:19:34;20.60;99.90
9486;DHT22;4781;48.776;9.200;2023-06-22T05:22:02;20.70;99.90
9486;DHT22;4781;48.776;9.200;2023-06-22T05:24:32;20.80;99.90
9486;DHT22;4781;48.776;9.200;2023-06-22T05:27:01;20.80;99.90
9486;DHT22;4781;48.776;9.200;2023-06-22T05:29:29;20.90;99.90
9486;DHT22;4781;48.776;9.200;2023-06-22T05:31:58;21.00;99.90
9486;DHT22;4781;48.776;9.200;2023-06-22T05:34:26;21.10;99.90
9486;DHT22;4781;48.776;9.200;2023-06-22T05:36:55;21.20;99.90
9486;DHT22;4781;48.776;9.200;2023-06-22T05:39:25;21.30;99.90
9486;DHT22;4781;48.776;9.200;2023-06-22T05:41:53;21.50;99.90
9486;DHT22;4781;48.776;9.200;2023-06-22T05:44:22;21.60;99.90
9486;DHT22;4781;48.776;9.200;2023-06-22T05:46:50;21.70;99.90
9486;DHT22;4781;48.776;9.200;2023-06-22T05:49:19;21.80;99.90
9486;DHT22;4781;48.776;9.200;2023-06-22T05:51:49;21.90;99.90
9486;DHT22;4781;48.776;9.200;2023-06-22T05:54:17;22.00;99.90
9486;DHT22;4781;48.776;9.200;2023-06-22T05:56:45;22.20;99.90
9486;DHT22;4781;48.776;9.200;2023-06-22T05:59:14;22.30;99.90
9486;DHT22;4781;48.776;9.200;2023-06-22T06:01:42;22.40;99.90
9486;DHT22;4781;48.776;9.200;2023-06-22T06:04:11;22.50;99.90
9486;DHT22;4781;48.776;9.200;2023-06-22T06:06:39;22.60;99.90
9486;DHT22;4781;48.776;9.200;2023-06-22T06:09:11;22.60;99.90
9486;DHT22;4781;48.776;9.200;2023-06-22T06:11:39;22.60;99.90
9486;DHT22;4781;48.776;9.200;2023-06-22T06:14:09;22.60;99.90
9486;DHT22;4781;48.776;9.200;2023-06-22T06:16:37;22.60;99.90
9486;DHT22;4781;48.776;9.200;2023-06-22T06:19:05;22.60;99.90
9486;DHT22;4781;48.776;9.200;2023-06-22T06:21:34;22.60;99.90
9486;DHT22;4781;48.776;9.200;2023-06-22T06:24:02;22.80;99.90
9486;DHT22;4781;48.776;9.200;2023-06-22T06:26:31;22.90;99.90
9486;DHT22;4781;48.776;9.200;2023-06-22T06:29:01;23.00;99.90
9486;DHT22;4781;48.776;9.200;2023-06-22T06:31:29;23.10;99.90
9486;DHT22;4781;48.776;9.200;2023-06-22T06:33:58;23.30;99.90
9486;DHT22;4781;48.776;9.200;2023-06-22T06:36:26;23.50;99.90
9486;DHT22;4781;48.776;9.200;2023-06-22T06:38:55;23.70;99.90
9486;DHT22;4781;48.776;9.200;2023-06-22T06:41:23;24.20;99.90
9486;DHT22;4781;48.776;9.200;2023-06-22T06:43:51;24.40;99.90
9486;DHT22;4781;48.776;9.200;2023-06-22T06:46:20;24.50;99.90
9486;DHT22;4781;48.776;9.200;2023-06-22T06:48:48;24.60;99.90
9486;DHT22;4781;48.776;9.200;2023-06-22T06:51:17;24.60;99.90
9486;DHT22;4781;48.776;9.200;2023-06-22T06:53:45;25.00;99.90
9486;DHT22;4781;48.776;9.200;2023-06-22T06:56:13;25.20;99.90
9486;DHT22;4781;48.776;9.200;2023-06-22T06:58:42;25.20;99.90
9486;DHT22;4781;48.776;9.200;2023-06-22T07:01:12;25.30;99.90
9486;DHT22;4781;48.776;9.200;2023-06-22T07:03:40;25.40;99.90
9486;DHT22;4781;48.776;9.200;2023-06-22T07:06:09;25.60;99.90
9486;DHT22;4781;48.776;9.200;2023-06-22T07:08:38;25.70;99.90
9486;DHT22;4781;48.776;9.200;2023-06-22T07:11:06;25.90;99.90
9486;DHT22;4781;48.776;9.200;2023-06-22T07:13:35;26.20;99.90
9486;DHT22;4781;48.776;9.200;2023-06-22T07:16:03;26.30;99.90
9486;DHT22;4781;48.776;9.200;2023-06-22T07:18:32;26.30;99.90
9486;DHT22;4781;48.776;9.200;2023-06-22T07:21:00;26.30;99.90
9486;DHT22;4781;48.776;9.200;2023-06-22T07:23:30;26.10;99.90
9486;DHT22;4781;48.776;9.200;2023-06-22T07:25:59;26.10;99.90
9486;DHT22;4781;48.776;9.200;2023-06-22T07:28:31;26.10;99.90
9486;DHT22;4781;48.776;9.200;2023-06-22T07:31:01;26.20;99.90
9486;DHT22;4781;48.776;9.200;2023-06-22T07:33:30;26.20;99.90
9486;DHT22;4781;48.776;9.200;2023-06-22T07:35:59;26.20;99.90
9486;DHT22;4781;48.776;9.200;2023-06-22T07:38:29;26.20;99.90
9486;DHT22;4781;48.776;9.200;2023-06-22T07:40:57;26.30;99.90
9486;DHT22;4781;48.776;9.200;2023-06-22T07:43:25;26.30;99.90
9486;DHT22;4781;48.776;9.200;2023-06-22T07:45:55;26.50;99.90
9486;DHT22;4781;48.776;9.200;2023-06-22T07:48:24;26.70;99.90
9486;DHT22;4781;48.776;9.200;2023-06-22T07:50:52;26.80;99.90
9486;DHT22;4781;48.776;9.200;2023-06-22T07:53:21;26.80;99.90
9486;DHT22;4781;48.776;9.200;2023-06-22T07:55:50;26.90;99.90
9486;DHT22;4781;48.776;9.200;2023-06-22T07:58:18;27.00;99.90
9486;DHT22;4781;48.776;9.200;2023-06-22T08:00:47;26.90;99.90
9486;DHT22;4781;48.776;9.200;2023-06-22T08:03:16;26.90;99.90
9486;DHT22;4781;48.776;9.200;2023-06-22T08:05:44;27.00;99.90
9486;DHT22;4781;48.776;9.200;2023-06-22T08:08:12;27.20;99.90
9486;DHT22;4781;48.776;9.200;2023-06-22T08:10:41;27.30;99.90
9486;DHT22;4781;48.776;9.200;2023-06-22T08:13:10;27.40;99.90
9486;DHT22;4781;48.776;9.200;2023-06-22T08:15:38;27.40;99.90
9486;DHT22;4781;48.776;9.200;2023-06-22T08:18:07;27.50;99.90
9486;DHT22;4781;48.776;9.200;2023-06-22T08:20:35;27.70;99.90
9486;DHT22;4781;48.776;9.200;2023-06-22T08:23:04;27.80;99.90
9486;DHT22;4781;48.776;9.200;2023-06-22T08:25:35;27.90;99.90
9486;DHT22;4781;48.776;9.200;2023-06-22T08:28:04;27.90;99.90
9486;DHT22;4781;48.776;9.200;2023-06-22T08:30:33;27.70;99.90
9486;DHT22;4781;48.776;9.200;2023-06-22T08:33:02;27.60;99.90
9486;DHT22;4781;48.776;9.200;2023-06-22T08:35:30;27.50;99.90
9486;DHT22;4781;48.776;9.200;2023-06-22T08:37:58;27.50;99.90
9486;DHT22;4781;48.776;9.200;2023-06-22T08:40:28;27.70;99.90
9486;DHT22;4781;48.776;9.200;2023-06-22T08:42:56;27.80;99.90
9486;DHT22;4781;48.776;9.200;2023-06-22T08:45:25;27.90;99.90
9486;DHT22;4781;48.776;9.200;2023-06-22T08:47:53;27.90;99.90
9486;DHT22;4781;48.776;9.200;2023-06-22T08:50:22;27.90;99.90
9486;DHT22;4781;48.776;9.200;2023-06-22T08:52:50;28.00;99.90
9486;DHT22;4781;48.776;9.200;2023-06-22T08:55:19;28.00;99.90
9486;DHT22;4781;48.776;9.200;2023-06-22T08:57:47;27.90;99.90
9486;DHT22;4781;48.776;9.200;2023-06-22T09:00:16;27.90;99.90
9486;DHT22;4781;48.776;9.200;2023-06-22T09:02:47;28.00;99.90
9486;DHT22;4781;48.776;9.200;2023-06-22T09:05:15;28.20;99.90
9486;DHT22;4781;48.776;9.200;2023-06-22T09:07:44;28.50;99.90
9486;DHT22;4781;48.776;9.200;2023-06-22T09:10:13;28.50;99.90
9486;DHT22;4781;48.776;9.200;2023-06-22T09:12:44;28.40;99.90
9486;DHT22;4781;48.776;9.200;2023-06-22T09:15:12;28.30;99.90
9486;DHT22;4781;48.776;9.200;2023-06-22T09:17:41;28.20;99.90
9486;DHT22;4781;48.776;9.200;2023-06-22T09:20:10;28.30;99.90
9486;DHT22;4781;48.776;9.200;2023-06-22T09:22:38;28.50;99.90
9486;DHT22;4781;48.776;9.200;2023-06-22T09:25:07;28.60;99.90
9486;DHT22;4781;48.776;9.200;2023-06-22T09:27:36;28.80;99.90
9486;DHT22;4781;48.776;9.200;2023-06-22T09:30:05;29.00;99.90
9486;DHT22;4781;48.776;9.200;2023-06-22T09:32:34;28.80;99.90
9486;DHT22;4781;48.776;9.200;2023-06-22T09:35:05;28.90;99.90
9486;DHT22;4781;48.776;9.200;2023-06-22T09:37:35;29.00;99.90
9486;DHT22;4781;48.776;9.200;2023-06-22T09:40:04;29.30;99.90
9486;DHT22;4781;48.776;9.200;2023-06-22T09:42:35;29.30;99.90
9486;DHT22;4781;48.776;9.200;2023-06-22T09:45:03;29.50;99.90
9486;DHT22;4781;48.776;9.200;2023-06-22T09:47:32;29.60;99.90
9486;DHT22;4781;48.776;9.200;2023-06-22T09:50:01;29.80;99.90
9486;DHT22;4781;48.776;9.200;2023-06-22T09:52:29;30.00;99.90
9486;DHT22;4781;48.776;9.200;2023-06-22T09:54:57;29.90;99.90
9486;DHT22;4781;48.776;9.200;2023-06-22T09:57:26;30.00;99.90
9486;DHT22;4781;48.776;9.200;2023-06-22T09:59:54;30.10;99.90
9486;DHT22;4781;48.776;9.200;2023-06-22T10:02:23;29.90;99.90
9486;DHT22;4781;48.776;9.200;2023-06-22T10:04:51;30.00;99.90
9486;DHT22;4781;48.776;9.200;2023-06-22T10:07:19;30.10;99.90
9486;DHT22;4781;48.776;9.200;2023-06-22T10:09:48;30.00;99.90
9486;DHT22;4781;48.776;9.200;2023-06-22T10:12:16;29.80;99.90
9486;DHT22;4781;48.776;9.200;2023-06-22T10:14:45;29.70;99.90
9486;DHT22;4781;48.776;9.200;2023-06-22T10:17:13;29.80;99.90
9486;DHT22;4781;48.776;9.200;2023-06-22T10:19:41;29.80;99.90
9486;DHT22;4781;48.776;9.200;2023-06-22T10:22:10;29.90;99.90
9486;DHT22;4781;48.776;9.200;2023-06-22T10:24:38;29.90;99.90
9486;DHT22;4781;48.776;9.200;2023-06-22T10:27:08;30.10;99.90
9486;DHT22;4781;48.776;9.200;2023-06-22T10:29:37;30.20;99.90
9486;DHT22;4781;48.776;9.200;2023-06-22T10:32:06;30.30;99.90
9486;DHT22;4781;48.776;9.200;2023-06-22T10:34:35;30.50;99.90
9486;DHT22;4781;48.776;9.200;2023-06-22T10:37:03;30.50;99.90
9486;DHT22;4781;48.776;9.200;2023-06-22T10:39:32;30.70;99.90
9486;DHT22;4781;48.776;9.200;2023-06-22T10:42:00;30.90;99.90
9486;DHT22;4781;48.776;9.200;2023-06-22T10:44:28;31.00;99.90
9486;DHT22;4781;48.776;9.200;2023-06-22T10:46:57;31.10;99.90
9486;DHT22;4781;48.776;9.200;2023-06-22T10:49:25;31.00;99.70
9486;DHT22;4781;48.776;9.200;2023-06-22T10:51:54;30.80;99.90
9486;DHT22;4781;48.776;9.200;2023-06-22T10:54:22;30.70;99.90
9486;DHT22;4781;48.776;9.200;2023-06-22T10:56:50;30.80;99.90
9486;DHT22;4781;48.776;9.200;2023-06-22T10:59:19;30.80;99.90
9486;DHT22;4781;48.776;9.200;2023-06-22T11:01:49;30.60;99.90
9486;DHT22;4781;48.776;9.200;2023-06-22T11:04:17;30.60;99.90
9486;DHT22;4781;48.776;9.200;2023-06-22T11:06:46;30.40;99.90
9486;DHT22;4781;48.776;9.200;2023-06-22T11:09:16;30.40;99.90
9486;DHT22;4781;48.776;9.200;2023-06-22T11:11:48;30.40;99.90
9486;DHT22;4781;48.776;9.200;2023-06-22T11:14:20;30.20;99.90
9486;DHT22;4781;48.776;9.200;2023-06-22T11:16:48;30.30;99.90
9486;DHT22;4781;48.776;9.200;2023-06-22T11:19:17;30.50;99.90
9486;DHT22;4781;48.776;9.200;2023-06-22T11:21:46;30.40;98.70
9486;DHT22;4781;48.776;9.200;2023-06-22T11:24:14;30.40;99.80
9486;DHT22;4781;48.776;9.200;2023-06-22T11:26:43;30.40;99.80
9486;DHT22;4781;48.776;9.200;2023-06-22T11:29:12;30.40;99.70
9486;DHT22;4781;48.776;9.200;2023-06-22T11:31:40;30.30;99.90
9486;DHT22;4781;48.776;9.200;2023-06-22T11:34:10;30.30;99.70
9486;DHT22;4781;48.776;9.200;2023-06-22T11:36:38;30.30;99.80
9486;DHT22;4781;48.776;9.200;2023-06-22T11:39:08;30.30;99.90
9486;DHT22;4781;48.776;9.200;2023-06-22T11:41:37;30.40;99.90
9486;DHT22;4781;48.776;9.200;2023-06-22T11:44:06;30.40;99.90
9486;DHT22;4781;48.776;9.200;2023-06-22T11:46:34;30.50;99.90
9486;DHT22;4781;48.776;9.200;2023-06-22T11:49:03;30.80;99.90
9486;DHT22;4781;48.776;9.200;2023-06-22T11:51:32;30.90;99.90
9486;DHT22;4781;48.776;9.200;2023-06-22T11:54:00;30.90;99.90
9486;DHT22;4781;48.776;9.200;2023-06-22T11:56:29;31.00;99.90
9486;DHT22;4781;48.776;9.200;2023-06-22T11:58:58;31.00;99.90
9486;DHT22;4781;48.776;9.200;2023-06-22T12:01:27;30.90;99.30
9486;DHT22;4781;48.776;9.200;2023-06-22T12:03:55;30.90;97.90
9486;DHT22;4781;48.776;9.200;2023-06-22T12:06:24;31.00;97.20
9486;DHT22;4781;48.776;9.200;2023-06-22T12:08:52;31.00;96.90
9486;DHT22;4781;48.776;9.200;2023-06-22T12:11:21;31.10;97.70
9486;DHT22;4781;48.776;9.200;2023-06-22T12:13:49;31.00;97.60
9486;DHT22;4781;48.776;9.200;2023-06-22T12:16:17;30.80;98.30
9486;DHT22;4781;48.776;9.200;2023-06-22T12:18:48;30.80;99.50
9486;DHT22;4781;48.776;9.200;2023-06-22T12:21:16;30.80;99.90
9486;DHT22;4781;48.776;9.200;2023-06-22T12:23:45;31.00;99.50
9486;DHT22;4781;48.776;9.200;2023-06-22T12:26:13;31.00;99.10
9486;DHT22;4781;48.776;9.200;2023-06-22T12:28:42;31.00;99.20
9486;DHT22;4781;48.776;9.200;2023-06-22T12:31:10;30.90;98.80
9486;DHT22;4781;48.776;9.200;2023-06-22T12:33:39;30.80;98.40
9486;DHT22;4781;48.776;9.200;2023-06-22T12:36:07;30.60;99.00
9486;DHT22;4781;48.776;9.200;2023-06-22T12:38:35;30.60;99.20
9486;DHT22;4781;48.776;9.200;2023-06-22T12:41:04;30.60;99.10
9486;DHT22;4781;48.776;9.200;2023-06-22T12:43:32;30.50;98.90
9486;DHT22;4781;48.776;9.200;2023-06-22T12:46:01;30.50;99.00
9486;DHT22;4781;48.776;9.200;2023-06-22T12:48:29;30.40;99.20
9486;DHT22;4781;48.776;9.200;2023-06-22T12:50:57;30.50;99.00
9486;DHT22;4781;48.776;9.200;2023-06-22T12:53:26;30.50;99.20
9486;DHT22;4781;48.776;9.200;2023-06-22T12:55:54;30.50;99.70
9486;DHT22;4781;48.776;9.200;2023-06-22T12:58:22;30.40;99.40
9486;DHT22;4781;48.776;9.200;2023-06-22T13:00:51;30.20;99.60
9486;DHT22;4781;48.776;9.200;2023-06-22T13:03:20;30.00;99.70
9486;DHT22;4781;48.776;9.200;2023-06-22T13:05:50;30.00;99.90
9486;DHT22;4781;48.776;9.200;2023-06-22T13:08:19;30.10;99.90
9486;DHT22;4781;48.776;9.200;2023-06-22T13:10:47;30.10;99.90
9486;DHT22;4781;48.776;9.200;2023-06-22T13:13:15;30.10;99.90
9486;DHT22;4781;48.776;9.200;2023-06-22T13:15:44;30.10;99.90
9486;DHT22;4781;48.776;9.200;2023-06-22T13:18:12;30.20;99.90
9486;DHT22;4781;48.776;9.200;2023-06-22T13:20:41;30.10;99.90
9486;DHT22;4781;48.776;9.200;2023-06-22T13:23:09;30.20;99.90
9486;DHT22;4781;48.776;9.200;2023-06-22T13:25:37;30.30;99.90
9486;DHT22;4781;48.776;9.200;2023-06-22T13:28:06;30.40;99.90
9486;DHT22;4781;48.776;9.200;2023-06-22T13:30:35;30.40;99.90
9486;DHT22;4781;48.776;9.200;2023-06-22T13:33:03;30.50;99.90
9486;DHT22;4781;48.776;9.200;2023-06-22T13:35:32;30.50;99.90
9486;DHT22;4781;48.776;9.200;2023-06-22T13:38:01;30.60;99.90
9486;DHT22;4781;48.776;9.200;2023-06-22T13:40:30;30.60;99.90
9486;DHT22;4781;48.776;9.200;2023-06-22T13:42:58;30.60;99.10
9486;DHT22;4781;48.776;9.200;2023-06-22T13:45:27;30.60;98.60
9486;DHT22;4781;48.776;9.200;2023-06-22T13:47:55;30.60;98.70
9486;DHT22;4781;48.776;9.200;2023-06-22T13:50:24;30.60;98.80
9486;DHT22;4781;48.776;9.200;2023-06-22T13:52:52;30.70;98.80
9486;DHT22;4781;48.776;9.200;2023-06-22T13:55:21;30.70;99.60
9486;DHT22;4781;48.776;9.200;2023-06-22T13:57:50;30.70;98.70
9486;DHT22;4781;48.776;9.200;2023-06-22T14:00:19;30.80;98.60
9486;DHT22;4781;48.776;9.200;2023-06-22T14:02:47;30.80;98.10
9486;DHT22;4781;48.776;9.200;2023-06-22T14:05:15;30.80;97.20
9486;DHT22;4781;48.776;9.200;2023-06-22T14:07:44;30.80;97.60
9486;DHT22;4781;48.776;9.200;2023-06-22T14:10:13;30.90;97.60
9486;DHT22;4781;48.776;9.200;2023-06-22T14:12:41;30.90;95.60
9486;DHT22;4781;48.776;9.200;2023-06-22T14:15:10;30.80;95.30
9486;DHT22;4781;48.776;9.200;2023-06-22T14:17:38;31.00;97.10
9486;DHT22;4781;48.776;9.200;2023-06-22T14:20:07;31.10;95.90
9486;DHT22;4781;48.776;9.200;2023-06-22T14:22:35;31.30;95.10
9486;DHT22;4781;48.776;9.200;2023-06-22T14:25:06;31.50;94.90
9486;DHT22;4781;48.776;9.200;2023-06-22T14:27:35;31.70;95.10
9486;DHT22;4781;48.776;9.200;2023-06-22T14:30:05;31.70;94.50
9486;DHT22;4781;48.776;9.200;2023-06-22T14:32:34;31.70;95.50
9486;DHT22;4781;48.776;9.200;2023-06-22T14:35:02;31.70;94.80
9486;DHT22;4781;48.776;9.200;2023-06-22T14:37:31;31.70;93.90
9486;DHT22;4781;48.776;9.200;2023-06-22T14:39:59;31.80;94.30
9486;DHT22;4781;48.776;9.200;2023-06-22T14:42:27;31.90;94.20
9486;DHT22;4781;48.776;9.200;2023-06-22T14:44:56;31.90;91.70
9486;DHT22;4781;48.776;9.200;2023-06-22T14:47:25;32.00;91.30
9486;DHT22;4781;48.776;9.200;2023-06-22T14:49:53;32.20;91.20
9486;DHT22;4781;48.776;9.200;2023-06-22T14:52:22;32.30;89.80
9486;DHT22;4781;48.776;9.200;2023-06-22T14:54:50;32.30;88.10
9486;DHT22;4781;48.776;9.200;2023-06-22T14:57:19;32.30;88.10
9486;DHT22;4781;48.776;9.200;2023-06-22T14:59:49;32.30;82.20
9486;DHT22;4781;48.776;9.200;2023-06-22T15:02:18;32.10;78.10
9486;DHT22;4781;48.776;9.200;2023-06-22T15:04:46;32.10;76.90
9486;DHT22;4781;48.776;9.200;2023-06-22T15:07:15;32.10;75.60
9486;DHT22;4781;48.776;9.200;2023-06-22T15:09:45;31.90;75.10
9486;DHT22;4781;48.776;9.200;2023-06-22T15:12:13;31.70;75.80
9486;DHT22;4781;48.776;9.200;2023-06-22T15:14:42;31.70;75.80
9486;DHT22;4781;48.776;9.200;2023-06-22T15:17:11;31.70;76.70
9486;DHT22;4781;48.776;9.200;2023-06-22T15:19:40;31.80;75.90
9486;DHT22;4781;48.776;9.200;2023-06-22T15:22:09;31.80;75.50
9486;DHT22;4781;48.776;9.200;2023-06-22T15:24:37;31.90;76.20
9486;DHT22;4781;48.776;9.200;2023-06-22T15:27:06;32.10;75.90
9486;DHT22;4781;48.776;9.200;2023-06-22T15:29:34;32.20;74.10
9486;DHT22;4781;48.776;9.200;2023-06-22T15:32:03;32.20;73.90
9486;DHT22;4781;48.776;9.200;2023-06-22T15:34:31;31.90;73.50
9486;DHT22;4781;48.776;9.200;2023-06-22T15:37:00;31.90;73.60
9486;DHT22;4781;48.776;9.200;2023-06-22T15:39:28;31.70;72.30
9486;DHT22;4781;48.776;9.200;2023-06-22T15:41:56;31.70;73.00
9486;DHT22;4781;48.776;9.200;2023-06-22T15:44:25;31.60;72.60
9486;DHT22;4781;48.776;9.200;2023-06-22T15:46:53;31.50;72.10
9486;DHT22;4781;48.776;9.200;2023-06-22T15:49:22;31.70;72.30
9486;DHT22;4781;48.776;9.200;2023-06-22T15:51:50;31.70;72.60
9486;DHT22;4781;48.776;9.200;2023-06-22T15:54:18;31.80;73.10
9486;DHT22;4781;48.776;9.200;2023-06-22T15:56:47;31.70;72.40
9486;DHT22;4781;48.776;9.200;2023-06-22T15:59:15;31.70;73.40
9486;DHT22;4781;48.776;9.200;2023-06-22T16:01:44;31.60;73.70
9486;DHT22;4781;48.776;9.200;2023-06-22T16:04:12;31.40;72.20
9486;DHT22;4781;48.776;9.200;2023-06-22T16:06:41;31.10;73.80
9486;DHT22;4781;48.776;9.200;2023-06-22T16:09:09;31.00;73.60
9486;DHT22;4781;48.776;9.200;2023-06-22T16:11:39;30.80;74.60
9486;DHT22;4781;48.776;9.200;2023-06-22T16:14:08;30.80;75.90
9486;DHT22;4781;48.776;9.200;2023-06-22T16:16:36;30.80;75.00
9486;DHT22;4781;48.776;9.200;2023-06-22T16:19:05;30.70;76.10
9486;DHT22;4781;48.776;9.200;2023-06-22T16:21:33;30.60;75.60